createdAt,value
2023-12-11T00:01:12.894Z,9.20
2023-12-11T00:03:40.900Z,9.20
2023-12-11T00:06:09.637Z,9.30
2023-12-11T00:08:37.476Z,9.20
2023-12-11T00:11:05.617Z,9.30
2023-12-11T00:13:33.384Z,9.30
2023-12-11T00:16:01.236Z,9.30
2023-12-11T00:18:29.276Z,9.20
2023-12-11T00:20:57.176Z,9.20
2023-12-11T00:23:24.997Z,9.20
2023-12-11T00:25:52.728Z,9.20
2023-12-11T00:28:20.699Z,9.20
2023-12-11T00:30:48.613Z,9.10
2023-12-11T00:33:20.654Z,9.00
2023-12-11T00:35:48.484Z,9.00
2023-12-11T00:38:16.216Z,8.90
2023-12-11T00:40:44.138Z,8.80
2023-12-11T00:43:11.947Z,8.80
2023-12-11T00:45:39.934Z,8.60
2023-12-11T00:48:07.872Z,8.50
2023-12-11T00:50:35.962Z,8.30
2023-12-11T00:53:04.285Z,8.30
2023-12-11T00:55:32.076Z,8.10
2023-12-11T00:58:00.036Z,8.10
2023-12-11T01:00:27.816Z,8.00
2023-12-11T01:02:55.571Z,7.90
2023-12-11T01:05:23.382Z,7.90
2023-12-11T01:07:51.853Z,7.90
2023-12-11T01:10:19.944Z,7.90
2023-12-11T01:12:48.896Z,7.80
2023-12-11T01:15:17.395Z,7.90
2023-12-11T01:17:45.208Z,7.90
2023-12-11T01:20:13.140Z,7.80
2023-12-11T01:22:41.123Z,7.80
2023-12-11T01:25:10.310Z,7.80
2023-12-11T01:27:38.165Z,7.80
2023-12-11T01:30:07.520Z,7.80
2023-12-11T01:32:35.368Z,7.80
2023-12-11T01:35:03.397Z,7.80
2023-12-11T01:37:31.339Z,7.80
2023-12-11T01:39:59.707Z,7.80
2023-12-11T01:42:27.566Z,7.90
2023-12-11T01:44:55.269Z,7.90
2023-12-11T01:47:23.015Z,7.90
2023-12-11T01:49:51.029Z,7.90
2023-12-11T01:52:19.660Z,7.80
2023-12-11T01:54:48.036Z,7.90
2023-12-11T01:57:16.092Z,7.90
2023-12-11T01:59:46.798Z,7.80
2023-12-11T02:02:18.058Z,7.80
2023-12-11T02:04:46.113Z,7.80
2023-12-11T02:07:14.226Z,7.80
2023-12-11T02:09:42.006Z,7.80
2023-12-11T02:12:10.630Z,7.80
2023-12-11T02:14:38.479Z,7.80
2023-12-11T02:17:10.412Z,7.80
2023-12-11T02:19:38.532Z,7.80
2023-12-11T02:22:06.969Z,7.80
2023-12-11T02:24:42.429Z,7.80
2023-12-11T02:27:10.832Z,7.80
2023-12-11T02:29:38.641Z,7.80
2023-12-11T02:32:06.613Z,7.80
2023-12-11T02:34:34.646Z,7.80
2023-12-11T02:37:02.498Z,7.80
2023-12-11T02:39:30.406Z,7.80
2023-12-11T02:41:58.169Z,7.80
2023-12-11T02:44:26.011Z,7.80
2023-12-11T02:46:56.260Z,7.80
2023-12-11T02:49:24.243Z,7.80
2023-12-11T02:51:52.003Z,7.80
2023-12-11T02:54:19.759Z,7.80
2023-12-11T02:56:47.497Z,7.70
2023-12-11T02:59:15.300Z,7.80
2023-12-11T03:01:43.146Z,7.70
2023-12-11T03:04:11.340Z,7.70
2023-12-11T03:06:39.094Z,7.70
2023-12-11T03:09:09.197Z,7.60
2023-12-11T03:11:37.537Z,7.70
2023-12-11T03:14:05.350Z,7.60
2023-12-11T03:16:33.317Z,7.60
2023-12-11T03:19:01.408Z,7.60
2023-12-11T03:21:29.273Z,7.60
2023-12-11T03:23:57.079Z,7.60
2023-12-11T03:26:24.841Z,7.60
2023-12-11T03:28:52.601Z,7.60
2023-12-11T03:31:20.457Z,7.60
2023-12-11T03:33:48.548Z,7.60
2023-12-11T03:36:16.495Z,7.60
2023-12-11T03:38:44.441Z,7.60
2023-12-11T03:41:12.114Z,7.60
2023-12-11T03:43:39.860Z,7.60
2023-12-11T03:46:07.820Z,7.60
2023-12-11T03:48:35.931Z,7.60
2023-12-11T03:51:04.678Z,7.60
2023-12-11T03:53:32.562Z,7.60
2023-12-11T03:56:00.248Z,7.60
2023-12-11T03:58:28.268Z,7.60
2023-12-11T04:00:56.268Z,7.60
2023-12-11T04:03:24.272Z,7.60
2023-12-11T04:05:52.159Z,7.60
2023-12-11T04:08:19.872Z,7.60
2023-12-11T04:10:47.722Z,7.60
2023-12-11T04:13:15.716Z,7.50
2023-12-11T04:15:43.614Z,7.50
2023-12-11T04:18:11.792Z,7.50
2023-12-11T04:20:39.595Z,7.50
2023-12-11T04:23:07.426Z,7.40
2023-12-11T04:25:35.235Z,7.40
2023-12-11T04:28:03.670Z,7.30
2023-12-11T04:30:31.513Z,7.30
2023-12-11T04:32:59.673Z,7.30
2023-12-11T04:35:27.597Z,7.30
2023-12-11T04:37:55.307Z,7.30
2023-12-11T04:40:23.275Z,7.20
2023-12-11T04:42:51.082Z,7.10
2023-12-11T04:45:18.982Z,7.10
2023-12-11T04:47:46.796Z,7.00
2023-12-11T04:50:15.290Z,6.90
2023-12-11T04:52:43.638Z,7.00
2023-12-11T04:55:11.430Z,6.90
2023-12-11T04:57:39.262Z,6.90
2023-12-11T05:00:08.640Z,6.80
2023-12-11T05:02:36.500Z,6.80
2023-12-11T05:05:04.515Z,6.80
2023-12-11T05:07:33.194Z,6.80
2023-12-11T05:10:01.002Z,6.80
2023-12-11T05:12:29.449Z,6.70
2023-12-11T05:14:57.387Z,6.70
2023-12-11T05:17:25.118Z,6.60
2023-12-11T05:19:53.035Z,6.60
2023-12-11T05:22:20.748Z,6.60
2023-12-11T05:24:49.364Z,6.50
2023-12-11T05:27:17.853Z,6.50
2023-12-11T05:29:45.751Z,6.40
2023-12-11T05:32:15.363Z,6.40
2023-12-11T05:34:43.336Z,6.30
2023-12-11T05:37:11.284Z,6.30
2023-12-11T05:39:41.378Z,6.30
2023-12-11T05:42:10.334Z,6.30
2023-12-11T05:44:38.200Z,6.30
2023-12-11T05:47:06.182Z,6.20
2023-12-11T05:49:33.963Z,6.10
2023-12-11T05:52:02.571Z,6.20
2023-12-11T05:54:30.266Z,6.20
2023-12-11T05:56:58.355Z,6.30
2023-12-11T05:59:26.320Z,6.30
2023-12-11T06:01:54.253Z,6.30
2023-12-11T06:04:22.380Z,6.30
2023-12-11T06:06:50.232Z,6.30
2023-12-11T06:09:18.035Z,6.20
2023-12-11T06:11:45.921Z,6.20
2023-12-11T06:14:13.699Z,6.10
2023-12-11T06:16:42.391Z,6.10
2023-12-11T06:19:10.464Z,6.10
2023-12-11T06:21:39.919Z,6.10
2023-12-11T06:24:08.559Z,6.10
2023-12-11T06:26:36.719Z,6.30
2023-12-11T06:29:04.723Z,6.30
2023-12-11T06:31:32.417Z,6.30
2023-12-11T06:34:00.582Z,6.30
2023-12-11T06:36:29.821Z,6.40
2023-12-11T06:38:59.770Z,6.40
2023-12-11T06:41:27.578Z,6.40
2023-12-11T06:43:58.560Z,6.40
2023-12-11T06:46:31.065Z,6.40
2023-12-11T06:48:59.808Z,6.40
2023-12-11T06:51:28.702Z,6.40
2023-12-11T06:54:00.025Z,6.60
2023-12-11T06:56:32.960Z,6.60
2023-12-11T06:59:01.909Z,6.70
2023-12-11T07:01:37.207Z,6.80
2023-12-11T07:04:06.686Z,6.80
2023-12-11T07:06:35.150Z,6.90
2023-12-11T07:09:04.226Z,6.90
2023-12-11T07:11:32.073Z,7.00
2023-12-11T07:14:00.527Z,7.00
2023-12-11T07:16:28.593Z,7.10
2023-12-11T07:18:56.454Z,7.10
2023-12-11T07:21:25.787Z,7.10
2023-12-11T07:23:53.654Z,7.10
2023-12-11T07:26:21.333Z,7.10
2023-12-11T07:28:49.302Z,7.20
2023-12-11T07:31:17.304Z,7.20
2023-12-11T07:33:45.947Z,7.30
2023-12-11T07:36:14.691Z,7.30
2023-12-11T07:38:42.518Z,7.20
2023-12-11T07:41:10.365Z,7.30
2023-12-11T07:43:41.625Z,7.30
2023-12-11T07:46:19.860Z,7.30
2023-12-11T07:48:48.359Z,7.20
2023-12-11T07:51:20.363Z,7.30
2023-12-11T07:53:48.861Z,7.20
2023-12-11T07:56:21.490Z,7.30
2023-12-11T07:58:49.971Z,7.30
2023-12-11T08:01:17.941Z,7.30
2023-12-11T08:03:46.302Z,7.30
2023-12-11T08:06:14.611Z,7.40
2023-12-11T08:08:44.656Z,7.40
2023-12-11T08:11:17.725Z,7.40
2023-12-11T08:13:46.306Z,7.50
2023-12-11T08:16:15.538Z,7.50
2023-12-11T08:18:44.855Z,7.50
2023-12-11T08:21:13.155Z,7.50
2023-12-11T08:23:41.856Z,7.50
2023-12-11T08:26:11.206Z,7.50
2023-12-11T08:28:39.187Z,7.60
2023-12-11T08:31:07.583Z,7.60
2023-12-11T08:33:35.478Z,7.60
2023-12-11T08:36:03.771Z,7.60
2023-12-11T08:38:32.100Z,7.50
2023-12-11T08:41:00.295Z,7.50
2023-12-11T08:43:28.936Z,7.50
2023-12-11T08:45:57.314Z,7.50
2023-12-11T08:48:28.327Z,7.60
2023-12-11T08:50:59.805Z,7.60
2023-12-11T08:53:27.766Z,7.70
2023-12-11T08:55:55.647Z,7.70
2023-12-11T08:58:25.246Z,7.70
2023-12-11T09:00:53.210Z,7.70
2023-12-11T09:03:25.020Z,7.70
2023-12-11T09:05:56.410Z,7.70
2023-12-11T09:08:25.232Z,7.60
2023-12-11T09:10:54.750Z,7.60
2023-12-11T09:13:26.510Z,7.60
2023-12-11T09:15:56.535Z,7.70
2023-12-11T09:18:26.471Z,7.70
2023-12-11T09:20:54.811Z,7.70
2023-12-11T09:23:22.654Z,7.70
2023-12-11T09:25:50.392Z,7.70
2023-12-11T09:28:18.257Z,7.70
2023-12-11T09:30:46.368Z,7.60
2023-12-11T09:33:14.622Z,7.60
2023-12-11T09:35:43.086Z,7.50
2023-12-11T09:38:13.281Z,7.40
2023-12-11T09:40:41.458Z,7.40
2023-12-11T09:43:10.078Z,7.40
2023-12-11T09:45:38.952Z,7.40
2023-12-11T09:48:12.094Z,7.40
2023-12-11T09:50:43.258Z,7.30
2023-12-11T09:53:11.796Z,7.30
2023-12-11T09:55:39.740Z,7.30
2023-12-11T09:58:08.406Z,7.30
2023-12-11T10:00:39.138Z,7.20
2023-12-11T10:03:09.498Z,7.20
2023-12-11T10:05:37.962Z,7.20
2023-12-11T10:08:06.583Z,7.10
2023-12-11T10:10:35.574Z,7.10
2023-12-11T10:13:05.048Z,7.10
2023-12-11T10:15:35.624Z,7.10
2023-12-11T10:18:08.515Z,7.10
2023-12-11T10:20:39.140Z,7.20
2023-12-11T10:23:22.301Z,7.20
2023-12-11T10:26:04.828Z,7.30
2023-12-11T10:28:32.974Z,7.40
2023-12-11T10:31:03.597Z,7.50
2023-12-11T10:33:32.927Z,7.60
2023-12-11T10:36:07.027Z,7.70
2023-12-11T10:38:35.744Z,7.80
2023-12-11T10:41:03.998Z,7.80
2023-12-11T10:43:55.748Z,7.90
2023-12-11T10:46:30.806Z,7.90
2023-12-11T10:49:00.657Z,8.00
2023-12-11T10:51:30.278Z,8.00
2023-12-11T10:54:00.233Z,8.00
2023-12-11T10:56:29.039Z,8.00
2023-12-11T10:58:59.491Z,8.00
2023-12-11T11:01:29.157Z,8.00
2023-12-11T11:03:57.901Z,8.00
2023-12-11T11:06:30.666Z,8.00
2023-12-11T11:09:11.023Z,8.00
2023-12-11T11:11:45.139Z,7.90
2023-12-11T11:14:22.040Z,7.90
2023-12-11T11:16:57.896Z,7.90
2023-12-11T11:19:26.088Z,7.90
2023-12-11T11:22:01.438Z,8.00
2023-12-11T11:24:30.269Z,8.20
2023-12-11T11:26:58.767Z,8.30
2023-12-11T11:29:41.827Z,8.40
2023-12-11T11:32:11.276Z,8.50
2023-12-11T11:34:42.579Z,8.60
2023-12-11T11:37:19.246Z,8.60
2023-12-11T11:40:07.195Z,8.70
2023-12-11T11:42:39.555Z,8.70
2023-12-11T11:45:09.376Z,8.80
2023-12-11T11:47:37.659Z,8.80
2023-12-11T11:50:14.558Z,8.80
2023-12-11T11:52:44.255Z,8.80
2023-12-11T11:55:30.400Z,8.80
2023-12-11T11:57:58.572Z,8.80
2023-12-11T12:00:32.508Z,8.90
2023-12-11T12:03:09.978Z,8.90
2023-12-11T12:05:38.283Z,9.00
2023-12-11T12:08:10.751Z,9.00
2023-12-11T12:10:38.493Z,9.10
2023-12-11T12:13:06.524Z,9.10
2023-12-11T12:15:44.267Z,9.10
2023-12-11T12:18:14.031Z,9.20
2023-12-11T12:20:42.032Z,9.20
2023-12-11T12:23:10.244Z,9.30
2023-12-11T12:25:38.143Z,9.30
2023-12-11T12:28:12.952Z,9.30
2023-12-11T12:30:41.597Z,9.30
2023-12-11T12:33:12.452Z,9.30
2023-12-11T12:35:41.659Z,9.30
2023-12-11T12:38:09.590Z,9.30
2023-12-11T12:40:37.415Z,9.20
2023-12-11T12:43:13.653Z,9.20
2023-12-11T12:45:43.008Z,9.30
2023-12-11T12:48:11.300Z,9.20
2023-12-11T12:50:40.110Z,9.20
2023-12-11T12:53:11.627Z,9.20
2023-12-11T12:55:42.585Z,9.30
2023-12-11T12:58:14.899Z,9.30
2023-12-11T13:00:45.836Z,9.30
2023-12-11T13:03:14.425Z,9.30
2023-12-11T13:05:45.283Z,9.30
2023-12-11T13:08:16.247Z,9.30
2023-12-11T13:10:55.556Z,9.30
2023-12-11T13:13:28.202Z,9.30
2023-12-11T13:15:57.734Z,9.30
2023-12-11T13:18:32.026Z,9.30
2023-12-11T13:20:59.938Z,9.30
2023-12-11T13:23:27.846Z,9.30
2023-12-11T13:25:55.653Z,9.30
2023-12-11T13:28:23.803Z,9.30
2023-12-11T13:30:51.729Z,9.30
2023-12-11T13:33:19.759Z,9.30
2023-12-11T13:35:47.942Z,9.30
2023-12-11T13:38:15.764Z,9.20
2023-12-11T13:40:43.575Z,9.20
2023-12-11T13:43:12.836Z,9.20
2023-12-11T13:45:41.099Z,9.10
2023-12-11T13:48:12.429Z,9.20
2023-12-11T13:50:41.577Z,9.20
2023-12-11T13:53:09.511Z,9.20
2023-12-11T13:55:37.291Z,9.20
2023-12-11T13:58:05.202Z,9.20
2023-12-11T14:00:33.505Z,9.20
2023-12-11T14:03:04.372Z,9.30
2023-12-11T14:05:34.746Z,9.30
2023-12-11T14:08:04.844Z,9.30
2023-12-11T14:10:34.964Z,9.30
2023-12-11T14:13:04.382Z,9.30
2023-12-11T14:15:32.443Z,9.30
2023-12-11T14:18:00.831Z,9.30
2023-12-11T14:20:28.895Z,9.30
2023-12-11T14:22:57.129Z,9.30
2023-12-11T14:25:27.263Z,9.30
2023-12-11T14:27:55.509Z,9.30
2023-12-11T14:30:23.915Z,9.30
2023-12-11T14:32:51.860Z,9.30
2023-12-11T14:35:20.179Z,9.30
2023-12-11T14:37:48.174Z,9.20
2023-12-11T14:40:16.275Z,9.20
2023-12-11T14:42:44.709Z,9.10
2023-12-11T14:45:13.167Z,9.10
2023-12-11T14:47:41.044Z,9.00
2023-12-11T14:50:09.849Z,9.00
2023-12-11T14:52:38.685Z,9.00
2023-12-11T14:55:10.109Z,8.90
2023-12-11T14:57:38.292Z,8.90
2023-12-11T15:00:07.608Z,8.90
2023-12-11T15:02:35.487Z,8.90
2023-12-11T15:05:03.402Z,8.80
2023-12-11T15:07:31.634Z,8.80
2023-12-11T15:09:59.682Z,8.80
2023-12-11T15:12:28.164Z,8.80
2023-12-11T15:14:56.353Z,8.80
2023-12-11T15:17:24.305Z,8.70
2023-12-11T15:19:52.080Z,8.70
2023-12-11T15:22:20.054Z,8.70
2023-12-11T15:24:48.315Z,8.70
2023-12-11T15:27:19.062Z,8.60
2023-12-11T15:29:47.974Z,8.60
2023-12-11T15:32:17.101Z,8.60
2023-12-11T15:34:44.872Z,8.50
2023-12-11T15:37:12.664Z,8.50
2023-12-11T15:39:40.656Z,8.40
2023-12-11T15:42:08.659Z,8.40
2023-12-11T15:44:38.459Z,8.40
2023-12-11T15:47:08.345Z,8.30
2023-12-11T15:49:37.668Z,8.30
2023-12-11T15:52:07.766Z,8.30
2023-12-11T15:54:37.230Z,8.20
2023-12-11T15:57:06.195Z,8.10
2023-12-11T15:59:34.049Z,8.00
2023-12-11T16:02:03.296Z,8.00
2023-12-11T16:04:31.302Z,7.90
2023-12-11T16:07:00.260Z,7.80
2023-12-11T16:09:28.207Z,7.80
2023-12-11T16:11:56.159Z,7.60
2023-12-11T16:14:24.209Z,7.40
2023-12-11T16:16:51.969Z,7.30
2023-12-11T16:19:19.940Z,7.10
2023-12-11T16:21:48.612Z,7.00
2023-12-11T16:24:16.669Z,6.90
2023-12-11T16:26:45.269Z,6.90
2023-12-11T16:29:13.276Z,6.80
2023-12-11T16:31:41.375Z,6.70
2023-12-11T16:34:09.341Z,6.60
2023-12-11T16:36:37.305Z,6.60
2023-12-11T16:39:05.098Z,6.40
2023-12-11T16:41:32.986Z,6.30
2023-12-11T16:44:00.800Z,6.30
2023-12-11T16:46:28.802Z,6.30
2023-12-11T16:48:57.417Z,6.30
2023-12-11T16:51:25.172Z,6.30
2023-12-11T16:53:53.582Z,6.20
2023-12-11T16:56:21.310Z,6.10
2023-12-11T16:58:49.065Z,6.00
2023-12-11T17:01:17.069Z,5.90
2023-12-11T17:03:45.361Z,5.90
2023-12-11T17:06:18.033Z,5.90
2023-12-11T17:08:46.961Z,5.90
2023-12-11T17:11:14.923Z,5.90
2023-12-11T17:13:43.146Z,5.80
2023-12-11T17:16:11.046Z,5.80
2023-12-11T17:18:39.407Z,5.70
2023-12-11T17:21:10.592Z,5.50
2023-12-11T17:23:40.926Z,5.40
2023-12-11T17:26:09.547Z,5.40
2023-12-11T17:28:38.551Z,5.40
2023-12-11T17:31:06.411Z,5.30
2023-12-11T17:33:34.211Z,5.10
2023-12-11T17:36:02.139Z,5.00
2023-12-11T17:38:30.028Z,4.90
2023-12-11T17:40:57.820Z,4.80
2023-12-11T17:43:25.628Z,4.80
2023-12-11T17:45:54.170Z,4.60
2023-12-11T17:48:22.071Z,4.50
2023-12-11T17:50:49.831Z,4.50
2023-12-11T17:53:17.751Z,4.50
2023-12-11T17:55:45.652Z,4.40
2023-12-11T17:58:13.549Z,4.30
2023-12-11T18:00:41.307Z,4.30
2023-12-11T18:03:08.957Z,4.20
2023-12-11T18:05:36.625Z,4.10
2023-12-11T18:08:04.857Z,3.90
2023-12-11T18:10:34.534Z,3.90
2023-12-11T18:13:02.667Z,3.80
2023-12-11T18:15:30.527Z,3.80
2023-12-11T18:17:58.598Z,3.70
2023-12-11T18:20:26.445Z,3.60
2023-12-11T18:22:54.302Z,3.50
2023-12-11T18:25:22.295Z,3.50
2023-12-11T18:27:50.030Z,3.40
2023-12-11T18:30:17.702Z,3.30
2023-12-11T18:32:45.595Z,3.30
2023-12-11T18:35:13.825Z,3.30
2023-12-11T18:37:41.650Z,3.30
2023-12-11T18:40:09.856Z,3.20
2023-12-11T18:42:38.370Z,3.10
2023-12-11T18:45:07.833Z,3.10
2023-12-11T18:47:35.779Z,2.90
2023-12-11T18:50:05.889Z,2.80
2023-12-11T18:52:33.912Z,2.80
2023-12-11T18:55:01.656Z,2.70
2023-12-11T18:57:29.706Z,2.70
2023-12-11T18:59:57.938Z,2.70
2023-12-11T19:02:26.032Z,2.70
2023-12-11T19:04:54.892Z,2.60
2023-12-11T19:07:24.019Z,2.60
2023-12-11T19:09:52.002Z,2.50
2023-12-11T19:12:19.794Z,2.40
2023-12-11T19:14:47.670Z,2.30
2023-12-11T19:17:18.523Z,2.30
2023-12-11T19:19:46.970Z,2.20
2023-12-11T19:22:14.791Z,2.30
2023-12-11T19:24:43.146Z,2.30
2023-12-11T19:27:10.879Z,2.30
2023-12-11T19:29:38.794Z,2.40
2023-12-11T19:32:07.164Z,2.30
2023-12-11T19:34:35.243Z,2.20
2023-12-11T19:37:05.429Z,2.20
2023-12-11T19:39:33.402Z,2.20
2023-12-11T19:42:01.401Z,2.20
2023-12-11T19:44:29.272Z,2.30
2023-12-11T19:46:57.118Z,2.20
2023-12-11T19:49:25.732Z,2.20
2023-12-11T19:51:53.630Z,2.20
2023-12-11T19:54:21.424Z,2.20
2023-12-11T19:56:50.273Z,2.20
2023-12-11T19:59:20.307Z,2.20
2023-12-11T20:01:50.360Z,2.10
2023-12-11T20:04:18.248Z,2.10
2023-12-11T20:06:46.189Z,2.10
2023-12-11T20:09:14.073Z,2.10
2023-12-11T20:11:42.421Z,2.10
2023-12-11T20:14:12.701Z,2.10
2023-12-11T20:16:40.342Z,2.10
2023-12-11T20:19:09.740Z,2.20
2023-12-11T20:21:39.677Z,2.30
2023-12-11T20:24:07.428Z,2.30
2023-12-11T20:26:35.389Z,2.30
2023-12-11T20:29:03.700Z,2.30
2023-12-11T20:31:32.012Z,2.20
2023-12-11T20:33:59.960Z,2.20
2023-12-11T20:36:29.609Z,2.10
2023-12-11T20:38:57.892Z,2.10
2023-12-11T20:41:28.395Z,2.20
2023-12-11T20:44:04.753Z,2.30
2023-12-11T20:46:33.597Z,2.20
2023-12-11T20:49:01.710Z,2.30
2023-12-11T20:51:29.627Z,2.30
2023-12-11T20:53:57.488Z,2.40
2023-12-11T20:56:29.360Z,2.40
2023-12-11T20:58:58.433Z,2.50
2023-12-11T21:01:37.949Z,2.50
2023-12-11T21:04:08.043Z,2.60
2023-12-11T21:06:36.376Z,2.80
2023-12-11T21:09:08.841Z,2.90
2023-12-11T21:11:37.841Z,3.00
2023-12-11T21:14:05.860Z,3.20
2023-12-11T21:16:35.127Z,3.20
2023-12-11T21:19:04.119Z,3.30
2023-12-11T21:21:33.500Z,3.30
2023-12-11T21:24:01.469Z,3.30
2023-12-11T21:26:30.209Z,3.30
2023-12-11T21:28:58.301Z,3.30
2023-12-11T21:31:28.252Z,3.40
2023-12-11T21:33:57.241Z,3.50
2023-12-11T21:36:34.663Z,3.70
2023-12-11T21:39:03.339Z,3.80
2023-12-11T21:41:31.435Z,3.90
2023-12-11T21:43:59.991Z,4.00
2023-12-11T21:46:28.072Z,4.20
2023-12-11T21:48:58.985Z,4.20
2023-12-11T21:51:28.875Z,4.30
2023-12-11T21:53:57.031Z,4.40
2023-12-11T21:56:26.671Z,4.40
2023-12-11T21:58:55.222Z,4.50
2023-12-11T22:01:23.232Z,4.60
2023-12-11T22:03:51.854Z,4.60
2023-12-11T22:06:19.920Z,4.60
2023-12-11T22:08:47.791Z,4.70
2023-12-11T22:11:15.761Z,4.80
2023-12-11T22:13:49.490Z,4.80
2023-12-11T22:16:17.383Z,4.90
2023-12-11T22:18:48.502Z,5.00
2023-12-11T22:21:26.888Z,5.00
2023-12-11T22:23:54.706Z,5.00
2023-12-11T22:26:23.053Z,5.10
2023-12-11T22:28:50.834Z,5.10
2023-12-11T22:31:30.826Z,5.20
2023-12-11T22:33:59.112Z,5.20
2023-12-11T22:36:27.089Z,5.20
2023-12-11T22:38:55.062Z,5.30
2023-12-11T22:41:26.974Z,5.30
2023-12-11T22:43:54.895Z,5.30
2023-12-11T22:46:24.757Z,5.30
2023-12-11T22:48:53.884Z,5.30
2023-12-11T22:51:24.007Z,5.40
2023-12-11T22:53:51.748Z,5.40
2023-12-11T22:56:19.638Z,5.40
2023-12-11T22:58:47.306Z,5.40
2023-12-11T23:01:15.186Z,5.40
2023-12-11T23:03:43.168Z,5.40
2023-12-11T23:06:15.302Z,5.40
2023-12-11T23:08:43.920Z,5.40
2023-12-11T23:11:12.611Z,5.50
2023-12-11T23:13:40.381Z,5.40
2023-12-11T23:16:09.090Z,5.50
2023-12-11T23:18:37.018Z,5.40
2023-12-11T23:21:04.873Z,5.50
2023-12-11T23:23:32.866Z,5.60
2023-12-11T23:26:04.959Z,5.60
2023-12-11T23:28:33.646Z,5.60
2023-12-11T23:31:01.718Z,5.60
2023-12-11T23:33:30.392Z,5.70
2023-12-11T23:35:58.174Z,5.70
2023-12-11T23:38:26.004Z,5.80
2023-12-11T23:40:54.556Z,5.80
2023-12-11T23:43:22.453Z,5.80
2023-12-11T23:45:50.609Z,5.80
2023-12-11T23:48:18.881Z,5.80
2023-12-11T23:50:47.032Z,5.80
2023-12-11T23:53:14.959Z,5.80
2023-12-11T23:55:43.950Z,5.80
2023-12-11T23:58:11.768Z,5.80
